Terminal Aerodrome Forecast
Issued by NWS Cheyenne, WY

Home | Current Version | Previous Version | Text Only | Print | Product List | Glossary Off
Versions: 1 2 3 4 5 6 7 8 9 10 11 12 13 14 15 16 17 18 19 20 21 22 23 24 25 26 27

000
FTUS45 KCYS 242320
TAFCYS
TAF
KCYS 242320Z 2500/2524 02008KT P6SM VCSH SCT025 OVC040
      TEMPO 2501/2503 2SM -SHSN BR OVC030
     FM250300 02008KT 2SM -SN BR OVC020
     FM251200 23005KT 5SM -SN BR SCT020 OVC030
     FM251700 23010KT P6SM SKC=

USA.gov is the U.S. government's official web portal to all federal, state and local government web resources and services.